createdAt,value
2019-03-26T00:00:38.433Z,27.30
2019-03-26T00:03:17.025Z,27.30
2019-03-26T00:05:56.324Z,27.40
2019-03-26T00:08:38.114Z,27.30
2019-03-26T00:11:17.408Z,27.40
2019-03-26T00:13:57.697Z,27.40
2019-03-26T00:16:36.412Z,27.40
2019-03-26T00:19:16.475Z,27.40
2019-03-26T00:21:56.582Z,27.40
2019-03-26T00:24:36.000Z,27.30
2019-03-26T00:27:16.858Z,27.40
2019-03-26T00:29:56.150Z,27.40
2019-03-26T00:32:35.170Z,27.50
2019-03-26T00:35:13.134Z,27.50
2019-03-26T00:37:53.832Z,27.50
2019-03-26T00:40:39.955Z,27.50
2019-03-26T00:43:17.497Z,27.50
2019-03-26T00:45:56.511Z,27.50
2019-03-26T00:48:35.738Z,27.50
2019-03-26T00:51:16.010Z,27.50
2019-03-26T00:53:58.467Z,27.50
2019-03-26T00:56:37.146Z,27.50
2019-03-26T00:59:15.805Z,27.50
2019-03-26T01:01:54.686Z,27.60
2019-03-26T01:04:33.850Z,27.70
2019-03-26T01:07:13.427Z,27.60
2019-03-26T01:09:52.103Z,27.70
2019-03-26T01:12:31.402Z,27.90
2019-03-26T01:15:13.349Z,27.90
2019-03-26T01:17:59.286Z,28.00
2019-03-26T01:20:40.739Z,28.00
2019-03-26T01:23:20.886Z,28.10
2019-03-26T01:25:59.673Z,28.20
2019-03-26T01:28:41.301Z,28.30
2019-03-26T01:31:21.473Z,28.40
2019-03-26T01:34:02.736Z,28.70
2019-03-26T01:36:41.946Z,28.70
2019-03-26T01:39:19.764Z,28.70
2019-03-26T01:41:59.169Z,28.90
2019-03-26T01:44:39.181Z,29.20
2019-03-26T01:47:17.875Z,29.60
2019-03-26T01:49:56.605Z,29.90
2019-03-26T01:52:36.529Z,29.90
2019-03-26T01:55:18.510Z,30.00
2019-03-26T01:58:05.435Z,29.90
2019-03-26T02:00:45.253Z,29.70
2019-03-26T02:03:24.267Z,29.80
2019-03-26T02:06:05.786Z,30.00
2019-03-26T02:08:44.938Z,30.30
2019-03-26T02:11:23.617Z,30.50
2019-03-26T02:14:21.324Z,31.20
2019-03-26T02:17:00.680Z,31.80
2019-03-26T02:19:40.639Z,31.50
2019-03-26T02:22:20.626Z,31.50
2019-03-26T02:25:17.584Z,31.70
2019-03-26T02:27:58.296Z,32.10
2019-03-26T02:30:36.991Z,32.20
2019-03-26T02:33:18.277Z,32.00
2019-03-26T02:35:57.090Z,32.00
2019-03-26T02:38:50.793Z,32.00
2019-03-26T02:41:30.854Z,32.10
2019-03-26T02:47:09.314Z,32.80
2019-03-26T02:49:47.795Z,33.00
2019-03-26T02:52:29.368Z,33.70
2019-03-26T02:55:08.686Z,33.70
2019-03-26T02:57:48.330Z,33.70
2019-03-26T03:00:29.275Z,33.40
2019-03-26T03:03:08.643Z,32.70
2019-03-26T03:05:49.249Z,32.30
2019-03-26T03:08:29.981Z,32.60
2019-03-26T03:11:09.625Z,33.10
2019-03-26T03:13:48.953Z,33.00
2019-03-26T03:16:27.560Z,33.30
2019-03-26T03:19:06.259Z,33.70
2019-03-26T03:21:45.921Z,33.80
2019-03-26T03:24:44.270Z,33.90
2019-03-26T03:27:24.679Z,33.40
2019-03-26T03:30:03.384Z,33.30
2019-03-26T03:32:44.173Z,33.70
2019-03-26T03:35:22.451Z,34.20
2019-03-26T03:38:00.847Z,34.40
2019-03-26T03:40:39.671Z,34.30
2019-03-26T03:43:19.259Z,34.10
2019-03-26T03:45:58.727Z,33.90
2019-03-26T03:48:38.868Z,34.00
2019-03-26T03:51:19.194Z,34.50
2019-03-26T03:53:58.754Z,34.50
2019-03-26T03:56:37.892Z,34.40
2019-03-26T03:59:17.108Z,33.70
2019-03-26T04:01:55.823Z,33.60
2019-03-26T04:04:36.514Z,33.60
2019-03-26T04:07:15.376Z,33.70
2019-03-26T04:09:54.024Z,34.30
2019-03-26T04:12:33.207Z,35.00
2019-03-26T04:15:12.644Z,34.70
2019-03-26T04:17:51.437Z,34.10
2019-03-26T04:20:30.345Z,33.70
2019-03-26T04:23:09.099Z,33.80
2019-03-26T04:25:47.962Z,33.00
2019-03-26T04:28:27.853Z,32.30
2019-03-26T04:31:07.076Z,31.20
2019-03-26T04:33:45.684Z,30.60
2019-03-26T04:36:26.732Z,30.40
2019-03-26T04:39:06.076Z,30.50
2019-03-26T04:41:44.325Z,30.40
2019-03-26T04:44:23.074Z,30.40
2019-03-26T04:47:02.058Z,31.00
2019-03-26T04:49:40.529Z,31.30
2019-03-26T04:52:18.797Z,31.20
2019-03-26T04:54:57.690Z,30.90
2019-03-26T04:57:37.060Z,30.60
2019-03-26T05:00:15.823Z,30.50
2019-03-26T05:02:55.216Z,30.40
2019-03-26T05:05:33.481Z,30.80
2019-03-26T05:08:12.911Z,31.10
2019-03-26T05:10:51.731Z,31.60
2019-03-26T05:13:30.539Z,32.10
2019-03-26T05:16:09.725Z,32.00
2019-03-26T05:18:49.027Z,33.00
2019-03-26T05:21:28.067Z,32.30
2019-03-26T05:24:06.859Z,32.10
2019-03-26T05:26:46.137Z,32.90
2019-03-26T05:29:25.404Z,32.80
2019-03-26T05:32:03.577Z,32.40
2019-03-26T05:34:42.622Z,31.80
2019-03-26T05:37:21.042Z,32.10
2019-03-26T05:40:01.563Z,32.60
2019-03-26T05:42:41.551Z,32.60
2019-03-26T05:45:20.059Z,32.40
2019-03-26T05:47:58.524Z,31.90
2019-03-26T05:50:38.427Z,32.00
2019-03-26T05:53:17.540Z,31.90
2019-03-26T05:55:56.231Z,31.80
2019-03-26T05:58:35.978Z,32.80
2019-03-26T06:01:15.506Z,32.60
2019-03-26T06:03:53.774Z,32.60
2019-03-26T06:06:33.713Z,32.40
2019-03-26T06:09:13.488Z,33.60
2019-03-26T06:11:53.226Z,33.90
2019-03-26T06:14:31.412Z,33.40
2019-03-26T06:17:09.779Z,32.30
2019-03-26T06:19:48.710Z,32.20
2019-03-26T06:22:27.653Z,33.10
2019-03-26T06:25:06.486Z,33.50
2019-03-26T06:27:45.585Z,33.00
2019-03-26T06:30:26.947Z,31.90
2019-03-26T06:33:05.609Z,31.80
2019-03-26T06:35:44.056Z,31.40
2019-03-26T06:38:23.592Z,31.80
2019-03-26T06:41:03.839Z,33.10
2019-03-26T06:43:43.929Z,33.50
2019-03-26T06:46:22.967Z,33.90
2019-03-26T06:49:01.792Z,33.90
2019-03-26T06:51:40.644Z,33.80
2019-03-26T06:54:20.446Z,33.90
2019-03-26T06:56:58.721Z,34.00
2019-03-26T06:59:37.380Z,33.90
2019-03-26T07:02:16.737Z,33.90
2019-03-26T07:04:56.557Z,34.20
2019-03-26T07:07:35.424Z,34.40
2019-03-26T07:10:16.054Z,34.10
2019-03-26T07:12:54.947Z,33.70
2019-03-26T07:15:35.608Z,33.80
2019-03-26T07:18:15.227Z,34.00
2019-03-26T07:20:53.821Z,34.20
2019-03-26T07:23:32.820Z,34.30
2019-03-26T07:26:11.962Z,33.80
2019-03-26T07:28:56.620Z,34.10
2019-03-26T07:31:36.038Z,34.30
2019-03-26T07:34:15.039Z,34.20
2019-03-26T07:36:57.481Z,34.20
2019-03-26T07:39:39.175Z,34.30
2019-03-26T07:42:17.734Z,34.40
2019-03-26T07:44:58.021Z,34.50
2019-03-26T07:47:37.977Z,34.30
2019-03-26T07:50:17.188Z,34.20
2019-03-26T07:52:56.273Z,34.30
2019-03-26T07:55:34.735Z,34.10
2019-03-26T07:58:14.457Z,34.10
2019-03-26T08:00:52.789Z,34.20
2019-03-26T08:03:31.225Z,34.30
2019-03-26T08:06:10.009Z,34.00
2019-03-26T08:08:49.917Z,34.00
2019-03-26T08:11:29.009Z,34.00
2019-03-26T08:14:08.064Z,34.00
2019-03-26T08:16:48.026Z,33.90
2019-03-26T08:19:28.237Z,34.10
2019-03-26T08:22:07.418Z,34.20
2019-03-26T08:25:04.637Z,34.40
2019-03-26T08:27:50.903Z,34.20
2019-03-26T08:30:30.976Z,34.30
2019-03-26T08:33:10.270Z,34.40
2019-03-26T08:35:49.276Z,34.40
2019-03-26T08:38:44.406Z,34.20
2019-03-26T08:41:23.558Z,33.80
2019-03-26T08:44:02.798Z,34.10
2019-03-26T08:46:42.242Z,34.10
2019-03-26T08:49:30.671Z,34.00
2019-03-26T08:52:10.239Z,34.10
2019-03-26T08:54:49.900Z,34.10
2019-03-26T08:57:36.933Z,34.10
2019-03-26T09:00:16.870Z,34.30
2019-03-26T09:02:56.681Z,34.20
2019-03-26T09:05:36.463Z,34.10
2019-03-26T09:08:25.321Z,34.00
2019-03-26T09:10:55.134Z,34.00
2019-03-26T09:13:36.157Z,33.70
2019-03-26T09:16:16.945Z,33.70
2019-03-26T09:18:56.083Z,33.60
2019-03-26T09:21:38.364Z,33.30
2019-03-26T09:24:18.346Z,33.10
2019-03-26T09:26:58.357Z,32.90
2019-03-26T09:29:41.065Z,33.00
2019-03-26T09:32:21.038Z,32.70
2019-03-26T09:35:00.570Z,32.50
2019-03-26T09:37:39.858Z,32.50
2019-03-26T09:40:19.172Z,32.70
2019-03-26T09:42:59.295Z,32.80
2019-03-26T09:45:39.844Z,32.80
2019-03-26T09:48:20.070Z,32.80
2019-03-26T09:51:02.126Z,32.70
2019-03-26T09:53:46.715Z,32.70
2019-03-26T09:56:32.038Z,32.50
2019-03-26T09:59:13.685Z,32.80
2019-03-26T10:01:51.944Z,32.60
2019-03-26T10:04:31.204Z,32.20
2019-03-26T10:07:21.642Z,32.30
2019-03-26T10:09:57.782Z,32.30
2019-03-26T10:12:39.532Z,32.40
2019-03-26T10:15:20.016Z,32.10
2019-03-26T10:17:58.861Z,32.20
2019-03-26T10:20:39.660Z,32.20
2019-03-26T10:23:22.006Z,32.20
2019-03-26T10:26:00.649Z,32.10
2019-03-26T10:28:43.298Z,31.80
2019-03-26T10:31:25.980Z,31.90
2019-03-26T10:34:12.570Z,31.80
2019-03-26T10:36:53.292Z,31.70
2019-03-26T10:39:32.686Z,31.60
2019-03-26T10:42:12.441Z,31.70
2019-03-26T10:44:53.246Z,31.70
2019-03-26T10:47:32.873Z,31.50
2019-03-26T10:50:14.966Z,31.60
2019-03-26T10:52:53.892Z,31.50
2019-03-26T10:55:34.155Z,31.40
2019-03-26T10:58:14.163Z,31.20
2019-03-26T11:00:58.108Z,31.20
2019-03-26T11:03:41.453Z,31.40
2019-03-26T11:06:18.114Z,31.30
2019-03-26T11:08:57.753Z,31.10
2019-03-26T11:11:40.967Z,31.00
2019-03-26T11:14:20.164Z,31.00
2019-03-26T11:17:03.145Z,31.10
2019-03-26T11:19:46.365Z,31.10
2019-03-26T11:22:29.430Z,30.90
2019-03-26T11:25:14.768Z,30.80
2019-03-26T11:27:57.406Z,30.90
2019-03-26T11:30:36.577Z,30.80
2019-03-26T11:33:16.598Z,30.80
2019-03-26T11:35:55.075Z,30.80
2019-03-26T11:38:35.302Z,30.90
2019-03-26T11:41:14.671Z,30.80
2019-03-26T11:43:53.463Z,30.80
2019-03-26T11:46:32.476Z,30.80
2019-03-26T11:49:10.579Z,30.60
2019-03-26T11:51:50.294Z,30.40
2019-03-26T11:54:29.319Z,30.40
2019-03-26T11:57:08.188Z,30.60
2019-03-26T11:59:46.722Z,30.60
2019-03-26T12:02:33.727Z,30.50
2019-03-26T12:05:14.632Z,30.40
2019-03-26T12:07:54.161Z,30.50
2019-03-26T12:10:33.436Z,30.60
2019-03-26T12:13:12.858Z,30.40
2019-03-26T12:15:52.236Z,30.20
2019-03-26T12:18:31.821Z,30.50
2019-03-26T12:21:10.260Z,30.70
2019-03-26T12:23:52.537Z,30.60
2019-03-26T12:26:31.419Z,30.40
2019-03-26T12:29:11.426Z,30.40
2019-03-26T12:31:50.575Z,30.50
2019-03-26T12:34:29.137Z,30.50
2019-03-26T12:37:10.434Z,30.40
2019-03-26T12:39:59.497Z,30.30
2019-03-26T12:42:33.728Z,30.30
2019-03-26T12:45:12.160Z,30.30
2019-03-26T12:47:52.041Z,30.30
2019-03-26T12:50:33.017Z,30.30
2019-03-26T12:53:12.739Z,30.20
2019-03-26T12:55:52.573Z,30.10
2019-03-26T12:58:36.281Z,30.10
2019-03-26T13:01:14.401Z,30.20
2019-03-26T13:03:53.760Z,30.30
2019-03-26T13:06:35.103Z,30.20
2019-03-26T13:09:16.680Z,30.00
2019-03-26T13:11:57.800Z,30.10
2019-03-26T13:14:37.723Z,30.40
2019-03-26T13:17:16.732Z,30.30
2019-03-26T13:19:59.618Z,30.00
2019-03-26T13:22:40.964Z,30.00
2019-03-26T13:25:19.938Z,30.30
2019-03-26T13:28:00.341Z,30.30
2019-03-26T13:30:39.981Z,30.00
2019-03-26T13:33:19.917Z,30.00
2019-03-26T13:36:01.143Z,30.10
2019-03-26T13:38:41.229Z,30.10
2019-03-26T13:41:26.504Z,30.30
2019-03-26T13:44:07.665Z,30.10
2019-03-26T13:46:47.448Z,30.00
2019-03-26T13:49:31.909Z,30.10
2019-03-26T13:52:15.656Z,30.10
2019-03-26T13:54:55.686Z,30.20
2019-03-26T13:57:35.459Z,30.00
2019-03-26T14:00:16.949Z,30.10
2019-03-26T14:03:08.055Z,30.00
2019-03-26T14:05:50.411Z,30.10
2019-03-26T14:08:29.157Z,30.30
2019-03-26T14:11:07.682Z,30.20
2019-03-26T14:13:49.893Z,30.10
2019-03-26T14:16:29.032Z,30.10
2019-03-26T14:19:08.176Z,30.10
2019-03-26T14:21:51.985Z,30.20
2019-03-26T14:24:34.441Z,30.00
2019-03-26T14:27:13.031Z,30.00
2019-03-26T14:29:53.062Z,30.30
2019-03-26T14:32:34.199Z,30.20
2019-03-26T14:35:14.883Z,30.10
2019-03-26T14:37:54.509Z,29.90
2019-03-26T14:40:34.317Z,30.00
2019-03-26T14:43:17.556Z,30.10
2019-03-26T14:46:00.256Z,30.10
2019-03-26T14:48:39.651Z,30.00
2019-03-26T14:51:23.181Z,30.00
2019-03-26T14:54:02.317Z,30.10
2019-03-26T14:56:41.070Z,30.00
2019-03-26T14:59:24.254Z,29.90
2019-03-26T15:02:04.531Z,30.10
2019-03-26T15:04:45.206Z,30.20
2019-03-26T15:07:26.428Z,30.00
2019-03-26T15:10:10.574Z,30.00
2019-03-26T15:12:53.475Z,30.10
2019-03-26T15:15:36.400Z,30.40
2019-03-26T15:18:17.346Z,30.10
2019-03-26T15:20:56.310Z,29.90
2019-03-26T15:23:34.888Z,29.90
2019-03-26T15:26:14.201Z,30.00
2019-03-26T15:28:54.778Z,30.20
2019-03-26T15:31:36.170Z,30.10
2019-03-26T15:34:14.897Z,29.80
2019-03-26T15:37:00.971Z,29.80
2019-03-26T15:39:42.597Z,29.90
2019-03-26T15:42:29.991Z,29.80
2019-03-26T15:45:13.881Z,29.90
2019-03-26T15:47:53.673Z,29.90
2019-03-26T15:50:49.784Z,29.90
2019-03-26T15:53:30.726Z,29.90
2019-03-26T15:56:08.574Z,30.00
2019-03-26T15:58:49.962Z,29.80
2019-03-26T16:01:29.421Z,29.70
2019-03-26T16:04:13.953Z,29.70
2019-03-26T16:06:52.529Z,29.80
2019-03-26T16:09:34.735Z,29.90
2019-03-26T16:12:15.027Z,29.70
2019-03-26T16:14:59.420Z,29.40
2019-03-26T16:17:38.627Z,29.60
2019-03-26T16:20:18.388Z,29.80
2019-03-26T16:22:59.985Z,29.80
2019-03-26T16:25:41.749Z,29.60
2019-03-26T16:28:20.732Z,29.60
2019-03-26T16:31:04.414Z,29.70
2019-03-26T16:33:47.016Z,29.80
2019-03-26T16:36:27.315Z,29.70
2019-03-26T16:39:07.772Z,29.60
2019-03-26T16:41:49.722Z,29.70
2019-03-26T16:44:32.166Z,29.90
2019-03-26T16:47:12.090Z,29.80
2019-03-26T16:50:00.551Z,29.90
2019-03-26T16:52:42.682Z,29.70
2019-03-26T16:55:25.769Z,29.70
2019-03-26T16:58:07.672Z,29.80
2019-03-26T17:00:48.734Z,29.80
2019-03-26T17:03:31.573Z,29.80
2019-03-26T17:06:10.949Z,29.60
2019-03-26T17:08:52.512Z,29.60
2019-03-26T17:11:39.615Z,29.80
2019-03-26T17:14:19.272Z,29.80
2019-03-26T17:17:01.239Z,29.80
2019-03-26T17:19:44.808Z,29.60
2019-03-26T17:22:24.246Z,29.70
2019-03-26T17:25:04.175Z,29.90
2019-03-26T17:27:45.549Z,29.90
2019-03-26T17:30:26.383Z,29.60
2019-03-26T17:33:06.358Z,29.50
2019-03-26T17:35:48.297Z,29.70
2019-03-26T17:38:28.544Z,29.90
2019-03-26T17:41:10.087Z,29.60
2019-03-26T17:43:50.114Z,29.50
2019-03-26T17:46:29.918Z,29.60
2019-03-26T17:49:11.880Z,29.80
2019-03-26T17:51:50.827Z,29.80
2019-03-26T17:54:31.141Z,29.50
2019-03-26T17:57:11.976Z,29.50
2019-03-26T17:59:56.452Z,29.70
2019-03-26T18:02:38.235Z,29.70
2019-03-26T18:05:29.203Z,29.60
2019-03-26T18:08:11.256Z,29.40
2019-03-26T18:10:50.479Z,29.50
2019-03-26T18:13:29.224Z,29.50
2019-03-26T18:16:07.976Z,29.60
2019-03-26T18:18:47.914Z,29.60
2019-03-26T18:21:27.174Z,29.50
2019-03-26T18:24:07.489Z,29.60
2019-03-26T18:26:46.558Z,29.50
2019-03-26T18:29:25.146Z,29.60
2019-03-26T18:32:06.267Z,29.50
2019-03-26T18:34:45.867Z,29.40
2019-03-26T18:37:24.588Z,29.60
2019-03-26T18:40:03.396Z,29.60
2019-03-26T18:42:44.138Z,29.70
2019-03-26T18:45:30.383Z,29.50
2019-03-26T18:48:10.320Z,29.50
2019-03-26T18:50:50.976Z,29.50
2019-03-26T18:53:30.350Z,29.70
2019-03-26T18:56:10.161Z,29.60
2019-03-26T18:58:49.602Z,29.50
2019-03-26T19:01:28.490Z,29.40
2019-03-26T19:04:09.147Z,29.60
2019-03-26T19:06:47.755Z,29.70
2019-03-26T19:09:29.188Z,29.60
2019-03-26T19:12:07.696Z,29.40
2019-03-26T19:14:47.276Z,29.40
2019-03-26T19:17:25.381Z,29.50
2019-03-26T19:20:03.705Z,29.60
2019-03-26T19:22:43.131Z,29.50
2019-03-26T19:25:22.261Z,29.40
2019-03-26T19:28:01.559Z,29.40
2019-03-26T19:30:43.331Z,29.50
2019-03-26T19:33:22.405Z,29.40
2019-03-26T19:36:01.559Z,29.30
2019-03-26T19:38:41.267Z,29.20
2019-03-26T19:41:19.947Z,29.40
2019-03-26T19:43:58.856Z,29.50
2019-03-26T19:46:38.291Z,29.50
2019-03-26T19:49:17.517Z,29.40
2019-03-26T19:51:56.184Z,29.30
2019-03-26T19:54:35.452Z,29.40
2019-03-26T19:57:14.658Z,29.50
2019-03-26T19:59:54.803Z,29.70
2019-03-26T20:02:34.447Z,29.70
2019-03-26T20:05:13.241Z,29.50
2019-03-26T20:07:53.592Z,29.50
2019-03-26T20:10:40.265Z,29.40
2019-03-26T20:13:24.287Z,29.40
2019-03-26T20:15:58.981Z,29.20
2019-03-26T20:18:38.230Z,29.20
2019-03-26T20:21:17.544Z,29.40
2019-03-26T20:23:56.411Z,29.30
2019-03-26T20:26:35.504Z,29.30
2019-03-26T20:29:14.786Z,29.30
2019-03-26T20:31:54.873Z,29.30
2019-03-26T20:34:33.599Z,29.40
2019-03-26T20:37:12.294Z,29.50
2019-03-26T20:39:53.293Z,29.50
2019-03-26T20:42:32.892Z,29.80
2019-03-26T20:45:15.280Z,29.60
2019-03-26T20:47:51.503Z,29.50
2019-03-26T20:50:30.411Z,29.70
2019-03-26T20:53:11.307Z,29.70
2019-03-26T20:55:54.552Z,29.40
2019-03-26T20:58:35.491Z,29.40
2019-03-26T21:01:14.462Z,29.40
2019-03-26T21:03:53.200Z,29.30
2019-03-26T21:06:34.835Z,29.30
2019-03-26T21:09:14.495Z,29.30
2019-03-26T21:11:55.259Z,29.20
2019-03-26T21:14:34.668Z,29.20
2019-03-26T21:17:13.421Z,29.20
2019-03-26T21:19:51.463Z,29.30
2019-03-26T21:22:30.040Z,29.30
2019-03-26T21:25:09.913Z,29.20
2019-03-26T21:27:48.493Z,29.00
2019-03-26T21:30:28.628Z,29.10
2019-03-26T21:33:07.426Z,29.10
2019-03-26T21:35:46.666Z,29.30
2019-03-26T21:38:25.211Z,29.10
2019-03-26T21:41:05.360Z,29.00
2019-03-26T21:43:45.363Z,29.00
2019-03-26T21:46:28.270Z,29.10
2019-03-26T21:49:07.603Z,29.20
2019-03-26T21:51:46.711Z,29.10
2019-03-26T21:54:26.692Z,29.10
2019-03-26T21:57:07.587Z,29.20
2019-03-26T21:59:47.386Z,29.30
2019-03-26T22:02:26.346Z,29.10
2019-03-26T22:05:05.189Z,28.90
2019-03-26T22:07:43.508Z,29.00
2019-03-26T22:10:23.002Z,29.30
2019-03-26T22:13:01.761Z,29.30
2019-03-26T22:15:41.983Z,29.10
2019-03-26T22:18:21.578Z,29.00
2019-03-26T22:21:01.472Z,29.10
2019-03-26T22:23:40.202Z,29.30
2019-03-26T22:26:21.434Z,29.20
2019-03-26T22:29:00.079Z,29.20
2019-03-26T22:31:46.731Z,29.10
2019-03-26T22:34:25.337Z,29.20
2019-03-26T22:37:03.422Z,29.30
2019-03-26T22:39:42.394Z,29.10
2019-03-26T22:42:21.018Z,28.90
2019-03-26T22:44:59.387Z,29.10
2019-03-26T22:47:39.546Z,29.20
2019-03-26T22:50:20.075Z,29.20
2019-03-26T22:52:58.749Z,28.80
2019-03-26T22:55:38.278Z,28.80
2019-03-26T22:58:18.716Z,28.90
2019-03-26T23:00:57.210Z,29.00
2019-03-26T23:03:35.653Z,28.90
2019-03-26T23:06:14.742Z,28.80
2019-03-26T23:08:55.305Z,28.80
2019-03-26T23:11:33.844Z,29.00
2019-03-26T23:14:14.412Z,29.10
2019-03-26T23:16:55.144Z,29.00
2019-03-26T23:19:33.967Z,29.00
2019-03-26T23:22:13.267Z,29.10
2019-03-26T23:24:51.719Z,29.10
2019-03-26T23:27:31.265Z,29.00
2019-03-26T23:30:10.852Z,29.00
2019-03-26T23:32:51.064Z,28.90
2019-03-26T23:35:29.665Z,28.90
2019-03-26T23:38:09.436Z,29.00
2019-03-26T23:40:48.455Z,29.10
2019-03-26T23:43:27.943Z,28.90
2019-03-26T23:46:06.030Z,28.90
2019-03-26T23:48:43.816Z,29.10
2019-03-26T23:51:29.629Z,29.10
2019-03-26T23:54:08.739Z,29.20
2019-03-26T23:56:48.236Z,29.20
2019-03-26T23:59:27.009Z,29.30
